Time;durP1;ratioP1;P1;durP2;ratioP2;P2;SDS_P1;SDS_P2;PMS_P1;PMS_P2;Temp;Humidity;BMP_temperature;BMP_pressure;BME280_temperature;BME280_humidity;BME280_pressure;Samples;Min_cycle;Max_cycle;Signal;HPM_P1;HPM_P2
2023/09/15 00:00:24;;;;;;;6.60;1.95;;;13.40;99.90;;;;;;5047346;28;20515;-73
2023/09/15 00:02:53;;;;;;;3.42;1.75;;;13.30;99.90;;;;;;5047812;28;20044;-73
2023/09/15 00:05:20;;;;;;;3.90;1.80;;;13.30;99.90;;;;;;5046192;28;20052;-74
2023/09/15 00:07:45;;;;;;;5.65;2.40;;;13.30;99.90;;;;;;5047282;28;20056;-75
2023/09/15 00:10:19;;;;;;;4.40;1.98;;;13.30;99.90;;;;;;5047708;28;20058;-74
2023/09/15 00:12:44;;;;;;;4.38;1.70;;;13.30;99.90;;;;;;5047708;28;20041;-72
2023/09/15 00:15:11;;;;;;;6.80;2.70;;;13.30;99.90;;;;;;5046807;28;20044;-73
2023/09/15 00:17:39;;;;;;;4.13;2.10;;;13.30;99.90;;;;;;5047519;28;20694;-75
2023/09/15 00:20:16;;;;;;;3.95;2.10;;;13.30;99.90;;;;;;5046784;28;20094;-74
2023/09/15 00:22:49;;;;;;;5.97;2.10;;;13.20;99.90;;;;;;5047364;28;20036;-75
2023/09/15 00:25:19;;;;;;;5.50;1.90;;;13.20;99.90;;;;;;5048202;28;20037;-74
2023/09/15 00:27:50;;;;;;;3.95;2.03;;;13.20;99.90;;;;;;5047087;28;20040;-73
2023/09/15 00:30:17;;;;;;;3.85;2.00;;;13.20;99.90;;;;;;5047330;28;20684;-74
2023/09/15 00:32:45;;;;;;;3.97;2.35;;;13.20;99.90;;;;;;5046491;28;20135;-75
2023/09/15 00:35:11;;;;;;;2.53;1.73;;;13.10;99.90;;;;;;5063509;28;20090;-73
2023/09/15 00:37:37;;;;;;;3.15;2.08;;;13.10;99.90;;;;;;5047072;28;20036;-76
2023/09/15 00:40:06;;;;;;;2.47;1.60;;;13.10;99.90;;;;;;5047122;28;20511;-73
2023/09/15 00:42:31;;;;;;;6.28;1.70;;;13.20;99.90;;;;;;5046831;28;20056;-73
2023/09/15 00:45:03;;;;;;;6.35;3.35;;;13.10;99.90;;;;;;5030583;28;20060;-75
2023/09/15 00:47:38;;;;;;;5.30;2.08;;;13.20;99.90;;;;;;5046161;28;20037;-73
2023/09/15 00:50:05;;;;;;;3.80;1.90;;;13.20;99.90;;;;;;5045944;28;20044;-73
2023/09/15 00:52:33;;;;;;;3.28;2.30;;;13.10;99.90;;;;;;5046121;28;20561;-74
2023/09/15 00:54:59;;;;;;;5.03;2.05;;;13.10;99.90;;;;;;5063429;28;20807;-75
2023/09/15 00:57:25;;;;;;;8.65;2.10;;;13.10;99.90;;;;;;5045942;28;20036;-74
2023/09/15 00:59:52;;;;;;;3.08;2.00;;;13.10;99.90;;;;;;5046717;28;20037;-73
2023/09/15 01:02:18;;;;;;;5.30;2.55;;;13.00;99.90;;;;;;5063799;28;20491;-73
2023/09/15 01:04:44;;;;;;;3.90;1.77;;;13.00;99.90;;;;;;5063483;28;20082;-75
2023/09/15 01:07:10;;;;;;;3.85;1.58;;;13.00;99.90;;;;;;5063127;28;20127;-74
2023/09/15 01:09:36;;;;;;;2.83;1.88;;;13.00;99.90;;;;;;5064435;28;20134;-75
2023/09/15 01:12:04;;;;;;;3.45;2.10;;;13.00;99.90;;;;;;5131952;22;20085;-74
2023/09/15 01:14:30;;;;;;;3.75;2.20;;;13.00;99.90;;;;;;5044667;28;20044;-75
2023/09/15 01:17:08;;;;;;;3.28;2.55;;;13.00;99.90;;;;;;5046152;28;20055;-75
2023/09/15 01:19:54;;;;;;;5.00;2.30;;;13.00;99.90;;;;;;5061685;28;20056;-74
2023/09/15 01:22:45;;;;;;;3.85;2.30;;;12.90;99.90;;;;;;5031432;28;20488;-73
2023/09/15 01:25:20;;;;;;;5.70;1.88;;;12.90;99.90;;;;;;5038982;28;20044;-73
2023/09/15 01:28:16;;;;;;;4.22;2.22;;;12.90;99.90;;;;;;5051877;28;20055;-73
2023/09/15 01:30:44;;;;;;;5.13;2.13;;;12.90;99.90;;;;;;5046243;28;20372;-74
2023/09/15 01:33:13;;;;;;;7.03;1.90;;;12.90;99.90;;;;;;5045552;28;20044;-73
2023/09/15 01:35:39;;;;;;;4.47;2.00;;;12.80;99.90;;;;;;5062757;28;20397;-77
2023/09/15 01:38:04;;;;;;;4.50;2.45;;;12.90;99.90;;;;;;5046019;28;20127;-75
2023/09/15 01:40:31;;;;;;;5.22;2.20;;;12.80;99.90;;;;;;5063858;28;20044;-74
2023/09/15 01:42:56;;;;;;;2.72;2.22;;;12.90;99.90;;;;;;5063686;28;20072;-74
2023/09/15 01:45:22;;;;;;;5.85;1.90;;;12.90;99.90;;;;;;5063170;28;20501;-74
2023/09/15 01:47:48;;;;;;;4.28;2.35;;;12.80;99.90;;;;;;5063479;28;20445;-75
2023/09/15 01:50:15;;;;;;;4.13;2.45;;;12.80;99.90;;;;;;5061877;28;20033;-73
2023/09/15 01:52:42;;;;;;;4.43;2.05;;;12.80;99.90;;;;;;5063184;28;20041;-73
2023/09/15 01:55:09;;;;;;;3.47;2.63;;;12.80;99.90;;;;;;5064081;28;20089;-73
2023/09/15 01:57:35;;;;;;;2.65;2.00;;;12.80;99.90;;;;;;5046188;28;20048;-73
2023/09/15 02:00:01;;;;;;;5.40;2.10;;;12.80;99.90;;;;;;5045437;28;20040;-75
2023/09/15 02:02:26;;;;;;;4.07;2.63;;;12.80;99.90;;;;;;5063078;28;20036;-74
2023/09/15 02:04:53;;;;;;;4.03;2.78;;;12.80;99.90;;;;;;5062385;28;20075;-73
2023/09/15 02:07:19;;;;;;;3.40;2.10;;;12.70;99.90;;;;;;5027915;28;20093;-74
2023/09/15 02:09:44;;;;;;;6.65;3.13;;;12.80;99.90;;;;;;5063200;28;20033;-72
2023/09/15 02:12:10;;;;;;;4.88;2.17;;;12.70;99.90;;;;;;5063130;28;20055;-72
2023/09/15 02:14:36;;;;;;;3.20;1.90;;;12.80;99.90;;;;;;5063942;28;20056;-72
2023/09/15 02:17:02;;;;;;;4.80;2.65;;;12.70;99.90;;;;;;5044982;28;20049;-72
2023/09/15 02:19:30;;;;;;;5.20;3.05;;;12.70;99.90;;;;;;5043865;28;20127;-72
2023/09/15 02:21:58;;;;;;;4.28;2.45;;;12.70;99.90;;;;;;5063263;28;20076;-73
2023/09/15 02:24:23;;;;;;;7.85;3.17;;;12.60;99.90;;;;;;5063094;28;20040;-73
2023/09/15 02:26:49;;;;;;;6.50;2.90;;;12.60;99.90;;;;;;5063039;28;20055;-73
2023/09/15 02:29:14;;;;;;;5.10;2.47;;;12.60;99.90;;;;;;5044955;28;20593;-75
2023/09/15 02:31:41;;;;;;;2.92;1.92;;;12.60;99.90;;;;;;5062961;28;20066;-73
2023/09/15 02:34:07;;;;;;;4.47;2.00;;;12.60;99.90;;;;;;5044305;28;20049;-72
2023/09/15 02:36:32;;;;;;;3.88;1.77;;;12.60;99.90;;;;;;5062311;28;20059;-74
2023/09/15 02:38:58;;;;;;;2.25;1.80;;;12.60;99.90;;;;;;5063015;28;20353;-73
2023/09/15 02:41:23;;;;;;;3.40;2.00;;;12.60;99.90;;;;;;5028213;28;20076;-72
2023/09/15 02:43:49;;;;;;;3.72;2.13;;;12.60;99.90;;;;;;5044585;28;20512;-72
2023/09/15 02:46:15;;;;;;;4.78;2.60;;;12.60;99.90;;;;;;5028109;28;20102;-72
2023/09/15 02:48:42;;;;;;;4.10;2.35;;;12.50;99.90;;;;;;5044227;28;20132;-75
2023/09/15 02:51:08;;;;;;;5.22;2.40;;;12.50;99.90;;;;;;5045152;28;20135;-74
2023/09/15 02:53:33;;;;;;;7.05;2.33;;;12.50;99.90;;;;;;5062852;28;20140;-74
2023/09/15 02:56:04;;;;;;;4.53;2.03;;;12.50;99.90;;;;;;5044995;28;20075;-73
2023/09/15 02:58:33;;;;;;;8.73;3.30;;;12.50;99.90;;;;;;5062283;28;20040;-72
2023/09/15 03:00:58;;;;;;;4.75;2.28;;;12.40;99.90;;;;;;5044513;28;20068;-74
2023/09/15 03:03:24;;;;;;;5.20;2.17;;;12.50;99.90;;;;;;5044355;28;20045;-75
2023/09/15 03:06:02;;;;;;;4.13;2.55;;;12.50;99.90;;;;;;5061588;28;20056;-74
2023/09/15 03:08:28;;;;;;;13.10;2.47;;;12.50;99.90;;;;;;5043967;28;20106;-72
2023/09/15 03:10:55;;;;;;;4.32;2.67;;;12.50;99.90;;;;;;5044800;28;20041;-74
2023/09/15 03:13:20;;;;;;;4.85;1.92;;;12.50;99.90;;;;;;5044145;28;20084;-74
2023/09/15 03:15:46;;;;;;;4.13;2.42;;;12.40;99.90;;;;;;5062646;28;20521;-74
2023/09/15 03:18:12;;;;;;;4.18;2.50;;;12.40;99.90;;;;;;5045544;28;20109;-72
2023/09/15 03:20:37;;;;;;;4.95;2.70;;;12.40;99.90;;;;;;5031552;28;20068;-72
2023/09/15 03:23:03;;;;;;;3.55;2.30;;;12.40;99.90;;;;;;5048174;28;20048;-72
2023/09/15 03:25:29;;;;;;;4.35;2.88;;;12.50;99.90;;;;;;5065923;28;20040;-72
2023/09/15 03:27:55;;;;;;;2.75;2.15;;;12.40;99.90;;;;;;5047844;28;20112;-72
2023/09/15 03:30:21;;;;;;;5.10;2.67;;;12.40;99.90;;;;;;5048678;28;20433;-72
2023/09/15 03:32:47;;;;;;;2.83;2.15;;;12.40;99.90;;;;;;5065880;28;20043;-74
2023/09/15 03:35:13;;;;;;;4.47;2.30;;;12.40;99.90;;;;;;5047332;28;20136;-73
2023/09/15 03:37:39;;;;;;;2.95;2.08;;;12.30;99.90;;;;;;5066201;28;20063;-74
2023/09/15 03:40:11;;;;;;;5.85;2.08;;;12.30;99.90;;;;;;5048798;28;20113;-73
2023/09/15 03:42:37;;;;;;;4.60;2.53;;;12.30;99.90;;;;;;5066268;28;20048;-71
2023/09/15 03:45:04;;;;;;;5.45;2.17;;;12.30;99.90;;;;;;5066365;28;20097;-72
2023/09/15 03:47:30;;;;;;;4.22;2.50;;;12.30;99.90;;;;;;5065399;28;20498;-72
2023/09/15 03:49:55;;;;;;;4.15;2.05;;;12.30;99.90;;;;;;5065092;28;20043;-74
2023/09/15 03:52:21;;;;;;;3.20;2.05;;;12.20;99.90;;;;;;5065361;28;20441;-72
2023/09/15 03:54:47;;;;;;;4.72;2.53;;;12.20;99.90;;;;;;5066245;28;20041;-73
2023/09/15 03:57:13;;;;;;;4.32;2.40;;;12.20;99.90;;;;;;5064998;28;20037;-74
2023/09/15 03:59:38;;;;;;;4.60;2.72;;;12.20;99.90;;;;;;5066368;28;20048;-75
2023/09/15 04:02:04;;;;;;;5.15;2.25;;;12.20;99.90;;;;;;5048174;28;20508;-73
2023/09/15 04:04:30;;;;;;;3.70;3.15;;;12.20;99.90;;;;;;5064568;28;20059;-72
2023/09/15 04:06:55;;;;;;;4.75;2.30;;;12.20;99.90;;;;;;5065122;28;20044;-74
2023/09/15 04:09:24;;;;;;;2.35;1.88;;;12.20;99.90;;;;;;5065357;28;20119;-72
2023/09/15 04:11:59;;;;;;;7.03;2.58;;;12.20;99.90;;;;;;5065489;28;20522;-74
2023/09/15 04:14:25;;;;;;;3.47;2.03;;;12.20;99.90;;;;;;5065236;28;20040;-72
2023/09/15 04:16:50;;;;;;;5.03;2.90;;;12.10;99.90;;;;;;5047738;28;20063;-73
2023/09/15 04:19:16;;;;;;;7.35;2.50;;;12.20;99.90;;;;;;5063985;28;20033;-72
2023/09/15 04:21:42;;;;;;;5.72;2.17;;;12.20;99.90;;;;;;5065250;28;20048;-74
2023/09/15 04:24:08;;;;;;;4.72;2.22;;;12.20;99.90;;;;;;5065460;28;20059;-72
2023/09/15 04:26:33;;;;;;;3.80;2.25;;;12.20;99.90;;;;;;5065770;28;20052;-75
2023/09/15 04:28:59;;;;;;;3.55;2.72;;;12.20;99.90;;;;;;5064682;28;20670;-74
2023/09/15 04:31:25;;;;;;;11.43;2.70;;;12.20;99.90;;;;;;5065060;28;20033;-75
2023/09/15 04:33:50;;;;;;;4.88;2.88;;;12.10;99.90;;;;;;5064046;28;20044;-75
2023/09/15 04:36:16;;;;;;;3.13;2.10;;;12.10;99.90;;;;;;5064598;28;20037;-74
2023/09/15 04:38:42;;;;;;;4.82;2.35;;;12.10;99.90;;;;;;5064417;28;20257;-72
2023/09/15 04:41:08;;;;;;;5.28;3.03;;;12.10;99.90;;;;;;5066131;28;20037;-73
2023/09/15 04:43:33;;;;;;;4.35;2.30;;;12.10;99.90;;;;;;5065765;28;20047;-73
2023/09/15 04:45:59;;;;;;;4.80;2.35;;;12.10;99.90;;;;;;5065393;28;20489;-72
2023/09/15 04:48:25;;;;;;;4.05;2.63;;;12.10;99.90;;;;;;5045680;28;20044;-76
2023/09/15 04:50:51;;;;;;;3.97;2.63;;;12.00;99.90;;;;;;5065104;28;20079;-72
2023/09/15 04:53:16;;;;;;;5.18;2.30;;;12.10;99.90;;;;;;5063903;28;20527;-74
2023/09/15 04:55:42;;;;;;;5.50;3.08;;;12.00;99.90;;;;;;5064408;28;20040;-75
2023/09/15 04:58:08;;;;;;;2.95;2.25;;;12.00;99.90;;;;;;5065294;28;20596;-75
2023/09/15 05:00:34;;;;;;;5.85;2.40;;;12.00;99.90;;;;;;5064922;28;20121;-75
2023/09/15 05:03:03;;;;;;;4.30;2.47;;;12.00;99.90;;;;;;5064068;28;20090;-73
2023/09/15 05:05:29;;;;;;;3.97;2.47;;;12.00;99.90;;;;;;5060683;28;20055;-74
2023/09/15 05:07:56;;;;;;;4.78;2.92;;;12.00;99.90;;;;;;5044064;28;20048;-74
2023/09/15 05:10:21;;;;;;;4.28;2.50;;;12.00;99.90;;;;;;5063127;28;20040;-75
2023/09/15 05:12:47;;;;;;;4.57;2.47;;;12.00;99.90;;;;;;5041776;28;20053;-75
2023/09/15 05:15:13;;;;;;;4.43;2.38;;;12.00;99.90;;;;;;5042240;28;20059;-76
2023/09/15 05:17:38;;;;;;;4.72;2.17;;;12.00;99.90;;;;;;5039920;28;20123;-77
2023/09/15 05:20:04;;;;;;;2.92;2.13;;;12.00;99.90;;;;;;5044111;28;20128;-74
2023/09/15 05:22:30;;;;;;;5.90;3.33;;;12.00;99.90;;;;;;5043498;28;20098;-75
2023/09/15 05:24:55;;;;;;;7.18;3.88;;;12.00;99.90;;;;;;5044403;28;20048;-73
2023/09/15 05:27:21;;;;;;;3.58;2.33;;;12.00;99.90;;;;;;5044040;28;20029;-72
2023/09/15 05:29:47;;;;;;;4.03;2.42;;;12.00;99.90;;;;;;5025830;28;20049;-75
2023/09/15 05:32:12;;;;;;;2.72;2.13;;;12.00;99.90;;;;;;5042758;28;20124;-75
2023/09/15 05:34:38;;;;;;;3.90;2.50;;;12.00;99.90;;;;;;5042216;28;20099;-79
2023/09/15 05:37:04;;;;;;;3.92;2.35;;;12.00;99.90;;;;;;5044234;28;20045;-78
2023/09/15 05:39:32;;;;;;;7.35;2.47;;;12.00;99.90;;;;;;5038197;28;20708;-79
2023/09/15 05:41:58;;;;;;;6.85;3.05;;;12.00;99.90;;;;;;5041229;28;20041;-80
2023/09/15 05:44:24;;;;;;;5.60;3.20;;;12.00;99.90;;;;;;5037197;28;20047;-80
2023/09/15 05:46:50;;;;;;;6.05;2.80;;;12.00;99.90;;;;;;5042037;28;20398;-79
2023/09/15 05:49:16;;;;;;;4.65;2.95;;;12.00;99.90;;;;;;5023859;28;20494;-79
2023/09/15 05:51:41;;;;;;;4.82;2.72;;;11.90;99.90;;;;;;5041671;28;20470;-78
2023/09/15 05:54:07;;;;;;;7.18;3.75;;;12.00;99.90;;;;;;5040428;28;20159;-77
2023/09/15 05:56:33;;;;;;;5.57;2.85;;;12.00;99.90;;;;;;5041973;28;20135;-78
2023/09/15 05:58:58;;;;;;;4.45;2.92;;;12.00;99.90;;;;;;5041947;28;20053;-79
2023/09/15 06:01:24;;;;;;;4.43;2.95;;;12.00;99.90;;;;;;5042121;28;20067;-79
2023/09/15 06:03:50;;;;;;;4.15;2.67;;;12.00;99.90;;;;;;5040447;28;20052;-79
2023/09/15 06:06:18;;;;;;;3.47;2.00;;;12.00;99.90;;;;;;5024506;28;20052;-79
2023/09/15 06:08:44;;;;;;;4.47;2.22;;;12.10;99.90;;;;;;5041567;28;20127;-79
2023/09/15 06:11:10;;;;;;;5.85;2.58;;;12.10;99.90;;;;;;5042001;28;20476;-79
2023/09/15 06:13:36;;;;;;;5.90;2.95;;;12.10;99.90;;;;;;5042157;28;20128;-78
2023/09/15 06:16:04;;;;;;;6.13;2.38;;;12.10;99.90;;;;;;5042413;28;20048;-78
2023/09/15 06:18:30;;;;;;;4.07;2.00;;;12.10;99.90;;;;;;5038296;28;20150;-77
2023/09/15 06:20:56;;;;;;;4.35;2.30;;;12.10;99.90;;;;;;5042005;28;20501;-78
2023/09/15 06:23:22;;;;;;;6.72;2.60;;;12.20;99.90;;;;;;5040400;28;20120;-77
2023/09/15 06:25:48;;;;;;;3.40;2.35;;;12.20;99.90;;;;;;5040160;28;20045;-78
2023/09/15 06:28:14;;;;;;;5.15;2.75;;;12.20;99.90;;;;;;5040791;28;20403;-78
2023/09/15 06:30:40;;;;;;;5.10;2.22;;;12.20;99.90;;;;;;5040791;28;20728;-78
2023/09/15 06:33:06;;;;;;;5.15;2.85;;;12.20;99.90;;;;;;5040747;28;20047;-79
2023/09/15 06:35:31;;;;;;;3.50;2.05;;;12.20;99.90;;;;;;5041129;28;20462;-77
2023/09/15 06:37:57;;;;;;;3.95;1.83;;;12.20;99.90;;;;;;5024089;28;20450;-77
2023/09/15 06:40:23;;;;;;;3.05;2.20;;;12.30;99.90;;;;;;5023607;28;20087;-77
2023/09/15 06:42:48;;;;;;;5.25;2.45;;;12.30;99.90;;;;;;5039256;28;20051;-76
2023/09/15 06:45:14;;;;;;;4.63;2.47;;;12.30;99.90;;;;;;5039890;28;20487;-77
2023/09/15 06:47:40;;;;;;;5.93;2.22;;;12.30;99.90;;;;;;5040336;28;20128;-76
2023/09/15 06:50:06;;;;;;;5.90;2.28;;;12.30;99.90;;;;;;5022578;28;20044;-77
2023/09/15 06:52:31;;;;;;;4.47;2.50;;;12.30;99.90;;;;;;5036333;28;20574;-77
2023/09/15 06:54:57;;;;;;;3.03;2.28;;;12.30;99.90;;;;;;5026918;28;20323;-77
2023/09/15 06:57:23;;;;;;;6.72;2.42;;;12.40;99.90;;;;;;5039861;28;20128;-77
2023/09/15 06:59:49;;;;;;;5.38;2.58;;;12.40;99.90;;;;;;5041539;28;20385;-76
2023/09/15 07:02:15;;;;;;;3.40;2.42;;;12.40;99.90;;;;;;5039048;28;20053;-75
2023/09/15 07:04:43;;;;;;;5.00;1.90;;;12.40;99.90;;;;;;5038420;28;20052;-74
2023/09/15 07:07:09;;;;;;;6.97;2.60;;;12.50;99.90;;;;;;5041831;28;20473;-77
2023/09/15 07:09:35;;;;;;;8.00;2.55;;;12.60;99.90;;;;;;5040715;28;20045;-77
2023/09/15 07:12:01;;;;;;;6.80;3.28;;;12.60;99.90;;;;;;5028749;28;20045;-74
2023/09/15 07:14:27;;;;;;;7.97;2.85;;;12.60;99.90;;;;;;5058456;28;20473;-75
2023/09/15 07:16:53;;;;;;;4.93;2.40;;;12.60;99.90;;;;;;5043420;28;20072;-77
2023/09/15 07:19:18;;;;;;;4.55;2.60;;;12.70;99.90;;;;;;5025328;28;20513;-76
2023/09/15 07:21:44;;;;;;;7.10;2.30;;;12.70;99.90;;;;;;5040617;28;20029;-77
2023/09/15 07:24:10;;;;;;;4.82;2.70;;;12.70;99.90;;;;;;5044702;28;20165;-74
2023/09/15 07:26:36;;;;;;;4.28;2.35;;;12.70;99.90;;;;;;5062928;28;20649;-74
2023/09/15 07:29:03;;;;;;;7.70;2.30;;;12.80;99.90;;;;;;5043497;28;20041;-75
2023/09/15 07:31:33;;;;;;;4.80;3.03;;;12.80;99.90;;;;;;5043826;28;20080;-76
2023/09/15 07:33:58;;;;;;;3.22;2.58;;;12.90;99.90;;;;;;5061781;28;20663;-79
2023/09/15 07:36:24;;;;;;;5.63;3.28;;;12.90;99.90;;;;;;5027343;28;20627;-78
2023/09/15 07:38:50;;;;;;;5.72;2.95;;;12.90;99.90;;;;;;5060301;28;20082;-77
2023/09/15 07:41:15;;;;;;;2.95;1.75;;;13.00;99.90;;;;;;5044091;28;20569;-76
2023/09/15 07:43:41;;;;;;;3.78;2.35;;;13.00;99.90;;;;;;5044419;28;20041;-76
2023/09/15 07:46:07;;;;;;;8.88;3.00;;;13.10;99.90;;;;;;5044287;28;20162;-75
2023/09/15 07:48:32;;;;;;;9.30;2.65;;;13.10;99.90;;;;;;5060677;28;20051;-76
2023/09/15 07:50:58;;;;;;;3.88;2.65;;;13.20;99.90;;;;;;5062462;28;20801;-76
2023/09/15 07:53:23;;;;;;;3.22;2.10;;;13.20;99.90;;;;;;5044156;28;20040;-75
2023/09/15 07:55:49;;;;;;;3.40;2.33;;;13.20;99.90;;;;;;5043422;28;20516;-74
2023/09/15 07:58:15;;;;;;;5.03;2.92;;;13.30;99.90;;;;;;5060334;28;20048;-76
2023/09/15 08:00:41;;;;;;;5.43;2.50;;;13.30;99.90;;;;;;5042674;28;21557;-76
2023/09/15 08:03:06;;;;;;;4.00;2.33;;;13.30;99.90;;;;;;5027032;28;20041;-76
2023/09/15 08:05:32;;;;;;;5.18;2.60;;;13.40;99.90;;;;;;5064894;28;20052;-76
2023/09/15 08:07:57;;;;;;;5.18;3.00;;;13.50;99.90;;;;;;5035697;28;20533;-77
2023/09/15 08:10:23;;;;;;;6.25;2.38;;;13.50;99.90;;;;;;5047737;28;20045;-77
2023/09/15 08:12:52;;;;;;;4.07;2.50;;;13.50;99.90;;;;;;5046884;28;20059;-76
2023/09/15 08:15:19;;;;;;;3.03;1.85;;;13.60;99.90;;;;;;5043925;28;20049;-75
2023/09/15 08:17:45;;;;;;;5.93;2.00;;;13.70;99.90;;;;;;5027249;28;20124;-78
2023/09/15 08:20:11;;;;;;;2.47;1.92;;;13.70;99.90;;;;;;5042004;28;20128;-76
2023/09/15 08:22:40;;;;;;;3.33;1.80;;;13.70;99.90;;;;;;5054406;28;20088;-77
2023/09/15 08:25:10;;;;;;;4.00;2.20;;;13.80;99.90;;;;;;5047324;28;20076;-77
2023/09/15 08:27:37;;;;;;;3.08;1.75;;;13.80;99.90;;;;;;5065450;28;20513;-75
2023/09/15 08:30:03;;;;;;;4.68;2.17;;;13.90;99.90;;;;;;5047050;28;20040;-76
2023/09/15 08:32:31;;;;;;;2.42;2.20;;;13.90;99.90;;;;;;5065179;28;20051;-77
2023/09/15 08:34:57;;;;;;;3.17;2.20;;;13.90;99.90;;;;;;5029978;28;20132;-77
2023/09/15 08:37:23;;;;;;;4.20;1.73;;;14.00;99.90;;;;;;5045722;28;20048;-76
2023/09/15 08:39:49;;;;;;;5.93;1.92;;;14.10;99.90;;;;;;5047571;28;20055;-75
2023/09/15 08:42:33;;;;;;;3.25;2.00;;;14.10;99.90;;;;;;5063756;28;20043;-75
2023/09/15 08:44:59;;;;;;;4.68;2.33;;;14.10;99.90;;;;;;5046013;28;20060;-75
2023/09/15 08:47:31;;;;;;;6.88;3.15;;;14.10;99.90;;;;;;5019042;28;20179;-75
2023/09/15 08:49:57;;;;;;;4.38;1.85;;;14.20;99.90;;;;;;5038429;28;20351;-77
2023/09/15 08:52:23;;;;;;;3.53;1.92;;;14.30;99.90;;;;;;5045710;28;20083;-75
2023/09/15 08:54:50;;;;;;;4.57;2.42;;;14.30;99.90;;;;;;5063679;28;20388;-75
2023/09/15 08:57:16;;;;;;;6.18;2.40;;;14.30;99.90;;;;;;5040490;28;20045;-75
2023/09/15 08:59:42;;;;;;;3.42;2.33;;;14.30;99.90;;;;;;5036566;28;20083;-75
2023/09/15 09:02:12;;;;;;;4.82;2.50;;;14.40;99.90;;;;;;5064721;28;20060;-75
2023/09/15 09:04:38;;;;;;;10.52;2.50;;;14.40;99.90;;;;;;5063630;28;20052;-77
2023/09/15 09:07:05;;;;;;;5.75;2.30;;;14.50;99.90;;;;;;5046948;28;20057;-76
2023/09/15 09:09:31;;;;;;;4.93;2.38;;;14.50;99.90;;;;;;5062543;28;20036;-75
2023/09/15 09:11:57;;;;;;;6.30;2.47;;;14.60;99.90;;;;;;5046084;28;20048;-75
2023/09/15 09:14:24;;;;;;;3.28;2.33;;;14.60;99.90;;;;;;5045934;28;20040;-76
2023/09/15 09:16:51;;;;;;;1.90;1.80;;;14.60;99.90;;;;;;5045373;28;20084;-76
2023/09/15 09:19:17;;;;;;;4.05;1.85;;;14.60;99.90;;;;;;5061311;28;20055;-76
2023/09/15 09:21:42;;;;;;;7.07;2.30;;;14.70;99.90;;;;;;5064344;28;20049;-77
2023/09/15 09:24:09;;;;;;;3.88;2.45;;;14.80;99.90;;;;;;5029603;28;20501;-76
2023/09/15 09:26:35;;;;;;;3.22;2.42;;;14.80;99.90;;;;;;5046505;28;20051;-76
2023/09/15 09:29:02;;;;;;;3.03;1.88;;;14.90;99.90;;;;;;5063676;28;20072;-76
2023/09/15 09:31:29;;;;;;;7.22;3.35;;;14.90;99.90;;;;;;5062686;28;20055;-75
2023/09/15 09:33:57;;;;;;;8.60;2.67;;;15.00;99.90;;;;;;5063123;28;20041;-74
2023/09/15 09:36:23;;;;;;;5.38;3.60;;;15.00;99.90;;;;;;5045585;28;20123;-74
2023/09/15 09:38:50;;;;;;;4.82;2.15;;;15.10;99.90;;;;;;5045964;28;20490;-76
2023/09/15 09:41:18;;;;;;;3.97;3.30;;;15.10;99.90;;;;;;5045517;28;20074;-76
2023/09/15 09:43:48;;;;;;;4.57;2.88;;;15.20;99.90;;;;;;5045817;28;20570;-76
2023/09/15 09:46:18;;;;;;;8.60;3.70;;;15.20;99.90;;;;;;5046445;28;20048;-75
2023/09/15 09:48:45;;;;;;;5.45;3.63;;;15.30;99.90;;;;;;5028585;28;20485;-78
2023/09/15 09:51:13;;;;;;;7.15;3.08;;;15.30;99.90;;;;;;5063330;28;20130;-76
2023/09/15 09:53:39;;;;;;;7.22;3.58;;;15.30;99.90;;;;;;5063268;28;20032;-77
2023/09/15 09:56:06;;;;;;;6.78;3.17;;;15.40;99.90;;;;;;5045734;28;20139;-76
2023/09/15 09:58:36;;;;;;;6.20;2.90;;;15.50;99.90;;;;;;5057561;28;20106;-76
2023/09/15 10:01:04;;;;;;;6.65;3.20;;;15.50;99.90;;;;;;5043070;28;20059;-78
2023/09/15 10:03:30;;;;;;;4.57;3.33;;;15.60;99.90;;;;;;5043335;28;20075;-77
2023/09/15 10:05:57;;;;;;;8.38;3.60;;;15.50;99.90;;;;;;5063590;28;20630;-75
2023/09/15 10:08:23;;;;;;;5.95;3.42;;;15.50;99.90;;;;;;5062576;28;20094;-75
2023/09/15 10:10:51;;;;;;;6.50;4.20;;;15.60;99.90;;;;;;5062540;28;20078;-75
2023/09/15 10:13:17;;;;;;;10.38;3.85;;;15.60;99.90;;;;;;5044212;28;20052;-75
2023/09/15 10:15:45;;;;;;;8.00;4.20;;;15.70;99.90;;;;;;5044531;28;20114;-76
2023/09/15 10:18:12;;;;;;;5.80;3.78;;;15.70;99.90;;;;;;5043524;28;20534;-76
2023/09/15 10:20:47;;;;;;;7.75;3.63;;;15.70;99.90;;;;;;5063237;28;20037;-75
2023/09/15 10:23:13;;;;;;;8.20;4.38;;;15.70;99.90;;;;;;5044127;28;20074;-76
2023/09/15 10:25:57;;;;;;;7.22;4.00;;;15.80;99.90;;;;;;5042526;28;20124;-79
2023/09/15 10:28:23;;;;;;;4.72;3.15;;;15.80;99.90;;;;;;5058450;28;20033;-77
2023/09/15 10:30:55;;;;;;;5.10;3.25;;;15.80;99.90;;;;;;5045233;28;20533;-78
2023/09/15 10:33:25;;;;;;;5.13;3.33;;;15.80;99.90;;;;;;5059574;28;20048;-75
2023/09/15 10:35:51;;;;;;;6.20;3.33;;;15.90;99.90;;;;;;5044894;28;20048;-77
2023/09/15 10:38:28;;;;;;;9.20;4.13;;;15.90;99.90;;;;;;5044301;28;20534;-77
2023/09/15 10:40:54;;;;;;;6.10;3.33;;;15.90;99.90;;;;;;5041198;28;20124;-76
2023/09/15 10:43:20;;;;;;;6.88;4.05;;;15.90;99.90;;;;;;5061971;28;20032;-77
2023/09/15 10:46:02;;;;;;;7.80;3.63;;;16.00;99.90;;;;;;5027712;28;20105;-76
2023/09/15 10:48:46;;;;;;;7.18;3.80;;;16.00;99.90;;;;;;5060132;28;20040;-75
2023/09/15 10:51:16;;;;;;;8.38;3.80;;;16.00;99.90;;;;;;5043839;28;20068;-75
2023/09/15 10:53:44;;;;;;;7.90;4.07;;;16.00;99.90;;;;;;5043588;28;20032;-76
2023/09/15 10:56:09;;;;;;;5.10;3.28;;;16.00;99.90;;;;;;5043676;28;20455;-75
2023/09/15 10:58:36;;;;;;;6.38;4.20;;;16.00;99.90;;;;;;5043723;28;20064;-74
2023/09/15 11:01:03;;;;;;;7.55;4.28;;;16.10;99.90;;;;;;5061268;28;20068;-75
2023/09/15 11:03:29;;;;;;;5.22;3.40;;;16.10;99.90;;;;;;5060396;28;20397;-74
2023/09/15 11:05:55;;;;;;;9.27;4.57;;;16.20;99.90;;;;;;5061489;28;20510;-75
2023/09/15 11:08:22;;;;;;;6.80;3.63;;;16.20;99.90;;;;;;5043192;28;20052;-75
2023/09/15 11:11:04;;;;;;;5.65;4.35;;;16.20;99.90;;;;;;5043736;28;20483;-74
2023/09/15 11:13:30;;;;;;;3.88;3.40;;;16.20;99.90;;;;;;5061193;28;20457;-74
2023/09/15 11:15:56;;;;;;;4.53;3.05;;;16.30;99.90;;;;;;5043380;28;20094;-75
2023/09/15 11:18:22;;;;;;;6.35;3.47;;;16.30;99.90;;;;;;5060129;28;20032;-74
2023/09/15 11:20:48;;;;;;;8.07;4.22;;;16.40;99.90;;;;;;5043291;28;20033;-74
2023/09/15 11:23:17;;;;;;;5.68;4.25;;;16.30;99.90;;;;;;5042797;28;20426;-75
2023/09/15 11:25:44;;;;;;;3.60;3.10;;;16.40;99.90;;;;;;5043732;28;20086;-74
2023/09/15 11:28:16;;;;;;;6.07;3.17;;;16.40;99.90;;;;;;5043265;28;20390;-75
2023/09/15 11:30:42;;;;;;;6.30;3.70;;;16.40;99.90;;;;;;5026351;28;20040;-74
2023/09/15 11:33:08;;;;;;;5.43;3.63;;;16.40;99.90;;;;;;5060565;28;20032;-77
2023/09/15 11:35:35;;;;;;;3.30;3.00;;;16.40;99.90;;;;;;5043553;28;20048;-75
2023/09/15 11:38:03;;;;;;;7.22;2.85;;;16.40;99.90;;;;;;5042829;28;20055;-76
2023/09/15 11:40:28;;;;;;;6.03;3.53;;;16.40;99.90;;;;;;5046528;28;20509;-75
2023/09/15 11:43:01;;;;;;;4.43;2.38;;;16.40;99.90;;;;;;5047075;28;20048;-74
2023/09/15 11:45:28;;;;;;;3.92;3.05;;;16.40;99.90;;;;;;5046159;28;20429;-76
2023/09/15 11:47:59;;;;;;;4.13;3.13;;;16.40;99.90;;;;;;5046013;28;20041;-78
2023/09/15 11:50:25;;;;;;;6.13;2.80;;;16.40;99.90;;;;;;5065051;28;20118;-75
2023/09/15 11:52:52;;;;;;;6.40;2.97;;;16.40;99.90;;;;;;5046901;28;20433;-74
2023/09/15 11:55:20;;;;;;;4.25;2.20;;;16.50;99.90;;;;;;5046114;28;20045;-74
2023/09/15 11:57:46;;;;;;;4.38;3.20;;;16.50;99.90;;;;;;5030156;28;20040;-75
2023/09/15 12:00:16;;;;;;;4.35;2.13;;;16.60;99.90;;;;;;5046975;28;20056;-75
2023/09/15 12:02:46;;;;;;;3.22;1.90;;;16.60;99.90;;;;;;5045472;28;20040;-75
2023/09/15 12:05:16;;;;;;;4.63;2.15;;;16.60;99.90;;;;;;5029742;28;20080;-75
2023/09/15 12:07:43;;;;;;;5.60;1.88;;;16.70;99.90;;;;;;5046565;28;20306;-76
2023/09/15 12:10:15;;;;;;;4.55;1.85;;;16.70;99.90;;;;;;5046100;28;20332;-77
2023/09/15 12:12:42;;;;;;;4.18;1.50;;;16.70;99.90;;;;;;5046599;28;20048;-74
2023/09/15 12:15:08;;;;;;;4.93;2.10;;;16.70;99.90;;;;;;5064264;28;20112;-75
2023/09/15 12:17:34;;;;;;;2.60;1.65;;;16.80;99.90;;;;;;5045708;28;20044;-76
2023/09/15 12:20:04;;;;;;;4.03;2.20;;;16.80;99.90;;;;;;5064449;28;20403;-77
2023/09/15 12:22:34;;;;;;;2.97;1.38;;;16.80;99.90;;;;;;5046652;28;20047;-75
2023/09/15 12:25:00;;;;;;;4.38;1.35;;;16.90;99.90;;;;;;5064107;28;20044;-75
2023/09/15 12:27:29;;;;;;;4.53;1.52;;;17.00;99.90;;;;;;5064449;28;20045;-76
2023/09/15 12:30:00;;;;;;;3.90;1.95;;;17.00;99.90;;;;;;5064615;28;20040;-75
2023/09/15 12:32:27;;;;;;;5.72;1.33;;;17.10;99.90;;;;;;5045453;28;20048;-74
2023/09/15 12:34:56;;;;;;;3.08;1.58;;;17.10;99.90;;;;;;5045705;28;20037;-76
2023/09/15 12:37:24;;;;;;;3.17;1.60;;;17.10;99.90;;;;;;5063239;28;20039;-77
2023/09/15 12:39:50;;;;;;;2.03;1.33;;;17.20;99.90;;;;;;5043769;28;20131;-77
2023/09/15 12:42:15;;;;;;;3.60;1.75;;;17.20;99.90;;;;;;5043778;28;20140;-75
2023/09/15 12:44:41;;;;;;;5.43;1.90;;;17.20;99.90;;;;;;5046318;28;20189;-76